Time;durP1;ratioP1;P1;durP2;ratioP2;P2;SDS_P1;SDS_P2;PMS_P1;PMS_P2;Temp;Humidity;BMP_temperature;BMP_pressure;BME280_temperature;BME280_humidity;BME280_pressure;Samples;Min_cycle;Max_cycle;Signal;HPM_P1;HPM_P2
2024/01/08 00:00:27;;;;;;;29.30;12.90;;;;;;;-10.05;72.91;101189.02;1660374;85;25979;-52
2024/01/08 00:02:55;;;;;;;28.52;11.57;;;;;;;-10.03;72.86;101195.72;1659687;86;25620;-52
2024/01/08 00:05:22;;;;;;;29.95;12.73;;;;;;;-10.04;72.69;101196.72;1664477;85;27325;-50
2024/01/08 00:07:48;;;;;;;24.63;12.18;;;;;;;-10.05;72.60;101197.68;1659615;85;25455;-50
2024/01/08 00:10:15;;;;;;;31.07;14.25;;;;;;;-10.03;72.69;101198.84;1660054;85;25589;-52
2024/01/08 00:12:41;;;;;;;27.60;12.37;;;;;;;-10.06;72.64;101200.45;1659863;84;26128;-50
2024/01/08 00:15:08;;;;;;;28.38;13.18;;;;;;;-10.03;72.63;101202.77;1660104;85;25655;-51
2024/01/08 00:17:35;;;;;;;28.38;12.93;;;;;;;-10.04;72.68;101193.29;1664888;85;27383;-53
2024/01/08 00:20:02;;;;;;;24.12;12.07;;;;;;;-10.04;72.65;101201.95;1662323;85;25432;-53
2024/01/08 00:22:28;;;;;;;25.97;12.75;;;;;;;-10.03;72.74;101196.22;1664331;85;25439;-50
2024/01/08 00:24:55;;;;;;;26.95;12.15;;;;;;;-10.04;72.54;101195.41;1660003;85;25872;-51
2024/01/08 00:27:22;;;;;;;25.27;11.50;;;;;;;-10.03;72.52;101202.77;1661182;85;25530;-52
2024/01/08 00:29:49;;;;;;;28.55;12.70;;;;;;;-10.03;72.65;101203.58;1660022;86;27309;-53
2024/01/08 00:32:15;;;;;;;28.62;12.63;;;;;;;-10.02;72.63;101201.80;1659918;86;25690;-49
2024/01/08 00:34:42;;;;;;;23.32;11.88;;;;;;;-10.04;72.56;101197.22;1659978;85;25513;-50
2024/01/08 00:37:09;;;;;;;28.23;11.90;;;;;;;-10.02;72.42;101203.11;1659985;86;25860;-52
2024/01/08 00:39:35;;;;;;;22.70;12.03;;;;;;;-10.04;72.58;101201.14;1660013;86;25458;-50
2024/01/08 00:42:02;;;;;;;24.92;11.50;;;;;;;-10.04;72.54;101200.64;1660129;86;27396;-52
2024/01/08 00:44:28;;;;;;;23.10;12.00;;;;;;;-10.05;72.47;101198.98;1660098;86;25454;-54
2024/01/08 00:46:55;;;;;;;27.00;11.63;;;;;;;-10.06;72.43;101205.67;1660137;86;25501;-54
2024/01/08 00:49:22;;;;;;;26.55;12.20;;;;;;;-10.05;72.63;101195.56;1659901;86;26694;-51
2024/01/08 00:51:48;;;;;;;26.62;11.73;;;;;;;-10.05;72.71;101198.98;1659482;86;25477;-53
2024/01/08 00:54:15;;;;;;;21.97;11.97;;;;;;;-10.06;72.62;101206.52;1648129;87;27266;-50
2024/01/08 00:56:42;;;;;;;25.00;11.85;;;;;;;-10.04;72.67;101209.80;1646921;87;25603;-52
2024/01/08 00:59:08;;;;;;;25.20;12.05;;;;;;;-10.04;72.69;101208.50;1648020;87;25428;-51
2024/01/08 01:01:35;;;;;;;23.60;11.95;;;;;;;-10.06;72.42;101205.22;1647955;87;26550;-51
2024/01/08 01:04:01;;;;;;;21.90;10.82;;;;;;;-10.07;72.36;101208.80;1647437;87;25440;-53
2024/01/08 01:06:28;;;;;;;23.90;11.53;;;;;;;-10.09;72.42;101207.31;1648092;86;27310;-51
2024/01/08 01:08:55;;;;;;;28.85;11.97;;;;;;;-10.09;72.42;101213.86;1659803;86;26971;-54
2024/01/08 01:11:21;;;;;;;25.25;12.45;;;;;;;-10.09;72.48;101217.78;1659917;86;25407;-52
2024/01/08 01:13:48;;;;;;;25.45;13.03;;;;;;;-10.08;72.84;101213.68;1660156;86;25936;-50
2024/01/08 01:16:14;;;;;;;22.95;11.18;;;;;;;-10.05;72.92;101219.11;1659854;86;25473;-51
2024/01/08 01:18:41;;;;;;;24.55;11.38;;;;;;;-10.03;72.89;101217.97;1659373;86;27454;-50
2024/01/08 01:21:08;;;;;;;26.12;11.85;;;;;;;-10.04;72.74;101220.77;1659936;86;25412;-48
2024/01/08 01:23:34;;;;;;;24.27;11.90;;;;;;;-10.05;72.64;101223.04;1659829;86;25472;-48
2024/01/08 01:26:00;;;;;;;23.45;12.73;;;;;;;-10.07;72.66;101217.95;1659908;86;26648;-50
2024/01/08 01:28:27;;;;;;;27.22;12.53;;;;;;;-10.07;72.76;101222.38;1659992;86;25484;-50
2024/01/08 01:30:54;;;;;;;21.85;11.48;;;;;;;-10.06;72.77;101232.70;1646986;87;27319;-48
2024/01/08 01:33:20;;;;;;;28.07;12.60;;;;;;;-10.05;72.92;101233.51;1655583;85;25530;-49
2024/01/08 01:35:47;;;;;;;28.42;12.58;;;;;;;-10.06;72.94;101229.23;1673787;85;25423;-49
2024/01/08 01:38:15;;;;;;;22.67;11.10;;;;;;;-10.05;72.92;101229.58;1675102;85;26658;-49
2024/01/08 01:40:41;;;;;;;25.12;12.58;;;;;;;-10.06;72.88;101230.08;1676237;85;25465;-49
2024/01/08 01:43:31;;;;;;;30.20;13.93;;;;;;;-10.08;72.92;101232.50;1674728;85;27465;-50
2024/01/08 01:46:03;;;;;;;27.85;12.30;;;;;;;-10.08;72.77;101235.11;1676593;85;25428;-51
2024/01/08 01:48:30;;;;;;;26.57;11.70;;;;;;;-10.10;72.87;101235.27;1675592;85;25546;-52
2024/01/08 01:50:57;;;;;;;25.35;11.22;;;;;;;-10.11;72.75;101234.09;1655611;86;25963;-52
2024/01/08 01:53:25;;;;;;;22.55;11.83;;;;;;;-10.15;72.69;101234.89;1656754;85;25421;-50
2024/01/08 01:55:53;;;;;;;24.87;11.18;;;;;;;-10.18;72.80;101239.95;1656460;85;28052;-49
2024/01/08 01:58:21;;;;;;;24.10;10.75;;;;;;;-10.17;72.92;101234.22;1655978;85;25501;-50
2024/01/08 02:00:48;;;;;;;30.05;13.10;;;;;;;-10.16;73.02;101248.47;1656430;85;25474;-48
2024/01/08 02:03:14;;;;;;;27.42;12.15;;;;;;;-10.18;72.93;101253.50;1655585;86;25866;-49
2024/01/08 02:05:41;;;;;;;27.00;13.05;;;;;;;-10.17;72.90;101258.59;1655640;86;25428;-50
2024/01/08 02:08:09;;;;;;;25.85;12.25;;;;;;;-10.19;72.83;101263.65;1655693;86;27454;-48
2024/01/08 02:10:40;;;;;;;30.05;13.55;;;;;;;-10.21;72.94;101269.02;1655341;85;25584;-50
2024/01/08 02:13:04;;;;;;;26.60;13.08;;;;;;;-10.23;72.85;101267.05;1655518;85;25463;-49
2024/01/08 02:15:31;;;;;;;29.07;13.55;;;;;;;-10.25;72.85;101276.81;1655436;86;25925;-49
2024/01/08 02:17:58;;;;;;;29.85;13.20;;;;;;;-10.29;72.65;101265.51;1655643;86;25437;-49
2024/01/08 02:20:24;;;;;;;26.75;12.65;;;;;;;-10.34;72.79;101275.95;1655616;86;27354;-49
2024/01/08 02:22:51;;;;;;;28.30;13.43;;;;;;;-10.36;72.92;101272.66;1656743;85;25424;-49
2024/01/08 02:25:18;;;;;;;23.55;12.13;;;;;;;-10.40;72.75;101281.78;1655565;85;25399;-49
2024/01/08 02:27:45;;;;;;;30.82;13.45;;;;;;;-10.45;72.76;101282.71;1655621;86;26019;-52
2024/01/08 02:30:12;;;;;;;29.67;12.40;;;;;;;-10.50;72.63;101282.33;1655864;86;25401;-49
2024/01/08 02:32:39;;;;;;;24.98;12.53;;;;;;;-10.55;72.66;101283.25;1655696;85;27426;-49
2024/01/08 02:35:07;;;;;;;30.85;12.98;;;;;;;-10.57;72.74;101291.70;1650834;85;25466;-49
2024/01/08 02:37:33;;;;;;;24.70;12.07;;;;;;;-10.59;72.82;101297.11;1650094;86;25436;-48
2024/01/08 02:39:59;;;;;;;30.43;13.43;;;;;;;-10.62;72.78;101298.70;1604505;89;25893;-48
2024/01/08 02:42:26;;;;;;;26.87;12.23;;;;;;;-10.67;72.77;101300.08;1631973;87;25479;-48
2024/01/08 02:44:53;;;;;;;27.73;11.88;;;;;;;-10.72;72.70;101309.20;1604429;89;27413;-48
2024/01/08 02:47:20;;;;;;;28.47;13.43;;;;;;;-10.74;72.89;101309.02;1632076;87;25399;-48
2024/01/08 02:49:47;;;;;;;24.90;12.58;;;;;;;-10.82;72.84;101312.83;1650072;87;25438;-49
2024/01/08 02:52:13;;;;;;;26.80;11.78;;;;;;;-10.83;72.71;101314.59;1650159;86;25917;-49
2024/01/08 02:54:40;;;;;;;29.25;12.82;;;;;;;-10.86;72.79;101321.91;1604560;88;25438;-49
2024/01/08 02:57:07;;;;;;;23.32;12.50;;;;;;;-10.90;72.82;101318.76;1631804;88;27239;-49
2024/01/08 02:59:33;;;;;;;28.75;13.20;;;;;;;-10.94;72.79;101313.00;1604347;89;25563;-49
2024/01/08 03:02:00;;;;;;;25.92;12.40;;;;;;;-10.96;72.82;101324.08;1632962;87;25476;-52
2024/01/08 03:04:27;;;;;;;28.45;12.40;;;;;;;-10.99;72.92;101326.97;1649983;87;25996;-48
2024/01/08 03:06:54;;;;;;;27.15;13.35;;;;;;;-11.02;72.74;101325.13;1650039;87;25470;-49
2024/01/08 03:09:20;;;;;;;25.52;12.68;;;;;;;-11.05;72.93;101330.14;1604413;89;27394;-48
2024/01/08 03:11:47;;;;;;;27.98;12.18;;;;;;;-11.11;72.80;101334.16;1631770;87;25672;-49
2024/01/08 03:14:13;;;;;;;28.85;13.03;;;;;;;-11.12;72.96;101342.13;1650113;87;25405;-49
2024/01/08 03:16:40;;;;;;;27.67;12.18;;;;;;;-11.16;72.88;101343.39;1649892;87;26591;-51
2024/01/08 03:19:06;;;;;;;30.15;12.75;;;;;;;-11.20;72.94;101342.86;1604292;88;25502;-49
2024/01/08 03:21:33;;;;;;;25.75;12.98;;;;;;;-11.25;72.83;101339.84;1631789;87;27380;-48
2024/01/08 03:24:00;;;;;;;26.07;12.75;;;;;;;-11.28;72.98;101347.95;1650032;87;25466;-48
2024/01/08 03:26:26;;;;;;;25.80;12.33;;;;;;;-11.31;72.89;101352.95;1650114;86;25455;-49
2024/01/08 03:28:53;;;;;;;27.58;13.35;;;;;;;-11.36;72.83;101347.33;1649625;87;26526;-48
2024/01/08 03:31:20;;;;;;;26.93;12.82;;;;;;;-11.39;72.84;101362.45;1650012;86;25470;-49
2024/01/08 03:33:46;;;;;;;30.08;12.85;;;;;;;-11.46;72.62;101363.48;1603739;87;27376;-49
2024/01/08 03:36:13;;;;;;;27.00;12.35;;;;;;;-11.50;72.86;101354.30;1627578;87;25409;-49
2024/01/08 03:38:40;;;;;;;25.77;12.47;;;;;;;-11.52;72.81;101363.56;1647584;86;25456;-49
2024/01/08 03:41:06;;;;;;;29.20;11.90;;;;;;;-11.58;72.83;101358.88;1647840;87;26013;-48
2024/01/08 03:43:33;;;;;;;27.62;12.18;;;;;;;-11.61;72.91;101363.56;1647978;87;25466;-48
2024/01/08 03:46:00;;;;;;;25.62;13.03;;;;;;;-11.66;72.91;101366.61;1647850;87;28037;-48
2024/01/08 03:48:26;;;;;;;27.22;12.23;;;;;;;-11.66;73.24;101364.81;1647894;87;25534;-48
2024/01/08 03:50:53;;;;;;;26.40;11.95;;;;;;;-11.65;73.32;101371.66;1647856;87;25492;-49
2024/01/08 03:53:20;;;;;;;28.07;11.55;;;;;;;-11.66;73.09;101370.52;1647747;87;26620;-48
2024/01/08 03:55:46;;;;;;;31.20;13.95;;;;;;;-11.70;73.03;101371.25;1647987;87;25493;-48
2024/01/08 03:58:13;;;;;;;29.45;13.03;;;;;;;-11.72;73.15;101373.17;1647883;87;27318;-49
2024/01/08 04:00:39;;;;;;;28.95;13.35;;;;;;;-11.73;73.15;101380.68;1647866;87;25484;-49
2024/01/08 04:03:06;;;;;;;28.45;13.03;;;;;;;-11.74;73.19;101383.42;1659862;86;25476;-49
2024/01/08 04:05:32;;;;;;;26.15;12.98;;;;;;;-11.76;73.18;101388.78;1659820;86;25961;-51
2024/01/08 04:07:59;;;;;;;26.75;11.03;;;;;;;-11.79;73.14;101399.97;1648445;86;25457;-48
2024/01/08 04:10:26;;;;;;;26.75;11.90;;;;;;;-11.80;73.22;101395.21;1647033;87;27420;-48
2024/01/08 04:12:52;;;;;;;25.10;12.00;;;;;;;-11.81;73.25;101394.04;1647850;87;25504;-48
2024/01/08 04:15:19;;;;;;;26.00;11.18;;;;;;;-11.81;73.14;101395.34;1647934;87;25451;-49
2024/01/08 04:17:46;;;;;;;26.95;12.33;;;;;;;-11.85;73.09;101390.88;1659734;86;25877;-49
2024/01/08 04:20:12;;;;;;;23.62;11.83;;;;;;;-11.86;73.12;101394.47;1659835;86;25420;-48
2024/01/08 04:22:42;;;;;;;27.02;11.85;;;;;;;-11.87;73.10;101396.72;1659974;86;27390;-48
2024/01/08 04:25:09;;;;;;;22.75;11.53;;;;;;;-11.92;73.12;101392.41;1645787;86;25481;-48
2024/01/08 04:27:35;;;;;;;29.63;12.37;;;;;;;-11.90;73.17;101399.59;1647821;87;25408;-49
2024/01/08 04:30:02;;;;;;;27.98;12.05;;;;;;;-11.92;73.04;101405.47;1635162;87;26450;-48
2024/01/08 04:32:29;;;;;;;25.82;12.65;;;;;;;-11.94;73.07;101413.91;1630558;87;25523;-47
2024/01/08 04:34:56;;;;;;;26.05;12.90;;;;;;;-11.95;73.16;101410.48;1648005;85;27301;-47
2024/01/08 04:37:22;;;;;;;27.10;11.60;;;;;;;-11.94;73.12;101423.05;1649620;86;25499;-47
2024/01/08 04:39:49;;;;;;;31.48;12.60;;;;;;;-11.96;73.23;101410.13;1649855;86;25501;-48
2024/01/08 04:42:15;;;;;;;31.20;12.85;;;;;;;-11.94;73.26;101423.05;1650350;86;25786;-48
2024/01/08 04:44:41;;;;;;;23.87;11.80;;;;;;;-11.96;73.22;101430.19;1650067;87;25425;-48
2024/01/08 04:47:08;;;;;;;27.70;12.25;;;;;;;-11.98;73.12;101434.23;1647788;86;28013;-48
2024/01/08 04:49:35;;;;;;;26.52;11.68;;;;;;;-12.00;73.04;101428.33;1647833;87;25430;-49
2024/01/08 04:52:01;;;;;;;26.35;11.50;;;;;;;-12.00;73.09;101430.94;1647920;87;25528;-49
2024/01/08 04:54:28;;;;;;;25.52;12.58;;;;;;;-11.99;73.14;101443.00;1647767;87;26492;-48
2024/01/08 04:56:58;;;;;;;26.82;11.80;;;;;;;-12.01;73.19;101439.71;1647949;87;25464;-50
2024/01/08 04:59:24;;;;;;;23.80;10.93;;;;;;;-12.03;73.06;101435.92;1647927;87;27329;-50
2024/01/08 05:01:51;;;;;;;22.87;11.33;;;;;;;-12.05;73.04;101432.63;1647822;87;25698;-50
2024/01/08 05:04:18;;;;;;;26.10;11.75;;;;;;;-12.04;73.02;101438.17;1648288;87;25429;-48
2024/01/08 05:06:45;;;;;;;23.12;10.88;;;;;;;-12.04;72.85;101440.79;1649936;86;26589;-49
2024/01/08 05:09:11;;;;;;;28.10;11.95;;;;;;;-12.04;72.83;101442.09;1649916;86;25490;-48
2024/01/08 05:11:38;;;;;;;26.60;12.07;;;;;;;-12.06;72.66;101442.71;1650127;87;27908;-49
2024/01/08 05:14:05;;;;;;;25.90;11.90;;;;;;;-12.09;72.66;101452.59;1650150;86;25502;-48
2024/01/08 05:16:31;;;;;;;28.40;11.50;;;;;;;-12.12;72.61;101448.48;1650145;87;25427;-48
2024/01/08 05:18:58;;;;;;;28.73;11.40;;;;;;;-12.13;72.71;101452.03;1650153;86;26653;-50
2024/01/08 05:21:25;;;;;;;23.52;10.90;;;;;;;-12.16;72.72;101453.59;1649101;86;25409;-47
2024/01/08 05:23:52;;;;;;;23.83;11.48;;;;;;;-12.16;72.81;101465.81;1649744;87;27888;-47
2024/01/08 05:26:18;;;;;;;25.05;11.60;;;;;;;-12.16;72.97;101460.59;1650078;86;25627;-48
2024/01/08 05:28:45;;;;;;;20.80;10.90;;;;;;;-12.18;73.07;101467.25;1649695;87;25455;-47
2024/01/08 05:31:11;;;;;;;23.02;11.05;;;;;;;-12.18;72.95;101468.55;1650123;86;25875;-47
2024/01/08 05:33:38;;;;;;;27.25;11.88;;;;;;;-12.18;72.80;101467.25;1650121;86;25483;-47
2024/01/08 05:36:06;;;;;;;26.85;11.83;;;;;;;-12.21;72.72;101472.72;1661843;85;27313;-48
2024/01/08 05:38:32;;;;;;;23.07;10.85;;;;;;;-12.22;72.72;101469.78;1659913;85;25516;-48
2024/01/08 05:40:59;;;;;;;28.10;11.78;;;;;;;-12.26;72.66;101465.77;1659986;85;25478;-48
2024/01/08 05:43:26;;;;;;;21.52;11.05;;;;;;;-12.28;72.49;101489.86;1664465;86;25906;-48
2024/01/08 05:45:53;;;;;;;20.52;11.33;;;;;;;-12.32;72.47;101488.48;1660297;85;25383;-48
2024/01/08 05:48:20;;;;;;;25.48;11.38;;;;;;;;;;1664560;85;27447;-48
2024/01/08 05:50:47;;;;;;;25.92;11.12;;;;;;;-12.37;72.45;101490.16;1631433;88;25564;-48
2024/01/08 05:53:13;;;;;;;26.52;12.33;;;;;;;-12.39;72.32;101493.38;1664516;85;25445;-48
2024/01/08 05:55:40;;;;;;;27.27;11.00;;;;;;;-12.43;72.32;101497.19;1660129;85;26590;-49
2024/01/08 05:58:06;;;;;;;26.60;11.70;;;;;;;-12.47;72.18;101504.92;1659808;85;25472;-48
2024/01/08 06:00:33;;;;;;;28.02;11.00;;;;;;;-12.52;72.10;101506.61;1659936;86;27329;-47
2024/01/08 06:03:00;;;;;;;27.42;10.58;;;;;;;-12.57;72.02;101504.86;1660022;85;25454;-48
2024/01/08 06:05:27;;;;;;;25.40;10.78;;;;;;;-12.65;72.00;101505.52;1664482;86;25476;-49
2024/01/08 06:07:54;;;;;;;24.98;9.60;;;;;;;-12.66;71.96;101508.24;1659864;86;26455;-49
2024/01/08 06:10:21;;;;;;;21.33;10.50;;;;;;;-12.70;71.96;101506.83;1659863;85;25505;-48
2024/01/08 06:12:47;;;;;;;25.95;12.43;;;;;;;-12.75;71.96;101505.92;1660059;85;27391;-47
2024/01/08 06:15:14;;;;;;;25.68;12.60;;;;;;;-12.80;72.03;101514.60;1659971;85;25599;-48
2024/01/08 06:17:40;;;;;;;27.20;12.18;;;;;;;-12.83;72.11;101518.27;1658228;85;25403;-48
2024/01/08 06:20:09;;;;;;;29.23;14.18;;;;;;;-12.85;72.06;101518.06;1661165;85;26685;-48
2024/01/08 06:22:35;;;;;;;29.67;14.40;;;;;;;-12.90;72.02;101517.12;1664175;86;25584;-52
2024/01/08 06:25:03;;;;;;;29.42;13.25;;;;;;;-12.94;71.95;101525.31;1659888;86;27360;-48
2024/01/08 06:27:29;;;;;;;35.03;15.40;;;;;;;-13.03;71.89;101517.77;1664372;85;25548;-48
2024/01/08 06:29:56;;;;;;;36.10;15.18;;;;;;;-13.04;71.94;101524.77;1664502;86;25430;-49
2024/01/08 06:32:24;;;;;;;35.90;16.42;;;;;;;-13.07;71.97;101528.91;1659893;85;25968;-48
2024/01/08 06:34:51;;;;;;;30.00;14.55;;;;;;;-13.13;72.04;101523.38;1666404;85;25488;-47
2024/01/08 06:37:18;;;;;;;27.48;12.33;;;;;;;-13.12;72.23;101530.25;1676552;85;27383;-48
2024/01/08 06:39:44;;;;;;;25.85;11.53;;;;;;;-13.15;72.19;101539.94;1676518;85;25408;-48
2024/01/08 06:42:11;;;;;;;26.60;11.22;;;;;;;-13.17;72.23;101534.03;1676623;85;25464;-51
2024/01/08 06:44:38;;;;;;;24.50;10.50;;;;;;;-13.21;72.22;101537.84;1676374;85;25967;-49
2024/01/08 06:47:05;;;;;;;27.17;11.22;;;;;;;-13.23;72.14;101546.23;1676555;85;25395;-49
2024/01/08 06:49:32;;;;;;;28.50;11.57;;;;;;;-13.24;72.21;101539.39;1676564;85;27318;-49
2024/01/08 06:52:00;;;;;;;25.88;11.73;;;;;;;-13.25;72.37;101545.53;1674972;85;25503;-48
2024/01/08 06:54:27;;;;;;;23.92;11.88;;;;;;;-13.28;72.23;101548.37;1676550;85;25475;-49
2024/01/08 06:56:53;;;;;;;27.42;10.75;;;;;;;-13.27;72.27;101544.83;1675015;85;25915;-48
2024/01/08 06:59:20;;;;;;;30.10;12.33;;;;;;;-13.30;72.39;101539.86;1676586;85;25437;-48
2024/01/08 07:01:48;;;;;;;24.95;11.65;;;;;;;-13.32;72.27;101544.41;1676285;85;27386;-48
2024/01/08 07:04:14;;;;;;;25.82;12.03;;;;;;;-13.31;72.32;101551.73;1676527;85;25530;-49
2024/01/08 07:06:41;;;;;;;24.40;11.57;;;;;;;-13.31;72.46;101551.73;1676654;85;25099;-49
2024/01/08 07:09:08;;;;;;;29.67;12.55;;;;;;;-13.30;72.58;101549.46;1676590;85;26054;-49
2024/01/08 07:11:35;;;;;;;29.02;12.10;;;;;;;-13.29;72.80;101549.83;1676607;85;25456;-47
2024/01/08 07:14:01;;;;;;;26.52;12.18;;;;;;;-13.28;72.68;101567.91;1676615;85;27377;-51
2024/01/08 07:16:28;;;;;;;27.20;11.63;;;;;;;-13.27;72.63;101564.84;1676412;85;25403;-49
2024/01/08 07:18:55;;;;;;;28.77;13.00;;;;;;;-13.25;72.78;101572.87;1676651;85;25508;-51
2024/01/08 07:21:22;;;;;;;24.77;11.25;;;;;;;-13.19;73.05;101581.52;1676584;85;26576;-49
2024/01/08 07:23:50;;;;;;;25.90;11.55;;;;;;;-13.13;73.08;101570.25;1676569;85;25423;-51
2024/01/08 07:26:17;;;;;;;23.10;10.88;;;;;;;-13.08;73.11;101574.62;1676366;85;27311;-49
2024/01/08 07:28:44;;;;;;;22.35;11.63;;;;;;;-13.02;73.20;101585.38;1676501;85;25415;-52
2024/01/08 07:31:15;;;;;;;23.50;11.48;;;;;;;-12.97;73.10;101586.31;1656134;85;25432;-48
2024/01/08 07:33:42;;;;;;;28.95;11.03;;;;;;;-12.95;73.10;101585.71;1657274;85;26458;-49
2024/01/08 07:36:09;;;;;;;29.95;12.23;;;;;;;-12.86;73.50;101601.89;1670005;85;25456;-48
2024/01/08 07:38:36;;;;;;;29.82;12.50;;;;;;;-12.79;73.42;101599.63;1659821;86;27364;-48
2024/01/08 07:41:03;;;;;;;27.62;11.68;;;;;;;-12.72;73.42;101598.66;1664260;86;25447;-48
2024/01/08 07:43:30;;;;;;;29.42;11.65;;;;;;;-12.66;73.34;101599.47;1659878;86;25455;-48
2024/01/08 07:45:57;;;;;;;25.27;11.90;;;;;;;-12.60;73.31;101606.31;1659841;86;25965;-49
2024/01/08 07:48:23;;;;;;;31.65;11.80;;;;;;;-12.53;72.97;101617.53;1659896;85;25460;-49
2024/01/08 07:50:50;;;;;;;26.27;11.65;;;;;;;-12.48;72.89;101620.13;1660147;85;27272;-49
2024/01/08 07:53:16;;;;;;;28.30;11.28;;;;;;;-12.42;72.86;101618.80;1660010;85;25424;-48
2024/01/08 07:55:43;;;;;;;32.08;11.95;;;;;;;-12.35;72.76;101626.45;1659857;85;25415;-49
2024/01/08 07:58:13;;;;;;;26.82;11.73;;;;;;;-12.28;73.01;101634.61;1660238;85;26642;-49
2024/01/08 08:00:40;;;;;;;28.12;12.23;;;;;;;-12.15;73.24;101633.95;1659965;85;25482;-48
2024/01/08 08:03:08;;;;;;;26.52;11.45;;;;;;;-12.04;72.85;101636.95;1664455;85;27914;-50
2024/01/08 08:05:34;;;;;;;37.15;14.30;;;;;;;-11.89;72.69;101640.86;1659622;85;25513;-49
2024/01/08 08:08:02;;;;;;;34.33;14.53;;;;;;;-11.76;72.70;101634.60;1665160;84;25418;-48
2024/01/08 08:10:29;;;;;;;34.90;14.45;;;;;;;-11.54;73.14;101647.52;1659847;86;26660;-49
2024/01/08 08:12:55;;;;;;;28.87;13.28;;;;;;;-11.33;73.79;101637.00;1660081;85;25479;-49
2024/01/08 08:15:22;;;;;;;28.70;15.40;;;;;;;-11.01;74.16;101640.41;1659905;85;28084;-49
2024/01/08 08:17:50;;;;;;;28.80;14.20;;;;;;;-10.60;75.03;101651.61;1660207;85;25474;-49
2024/01/08 08:20:16;;;;;;;29.10;13.20;;;;;;;-10.22;74.66;101657.77;1660119;85;25520;-49
2024/01/08 08:22:43;;;;;;;26.25;12.63;;;;;;;-9.95;73.24;101672.75;1659865;85;26118;-49
2024/01/08 08:25:10;;;;;;;36.20;15.83;;;;;;;-9.73;72.93;101670.30;1660037;85;25415;-49
2024/01/08 08:27:36;;;;;;;40.03;15.43;;;;;;;-9.46;72.75;101673.95;1659860;85;27297;-49
2024/01/08 08:30:04;;;;;;;31.82;14.15;;;;;;;-9.11;73.63;101685.52;1659774;85;25483;-48
2024/01/08 08:32:30;;;;;;;33.88;13.93;;;;;;;-8.69;73.72;101683.21;1664815;85;25067;-50
2024/01/08 08:34:57;;;;;;;28.73;12.98;;;;;;;-8.31;73.24;101691.77;1661007;85;26671;-48
2024/01/08 08:37:24;;;;;;;27.42;13.15;;;;;;;-8.12;71.42;101692.09;1664892;85;25414;-48
2024/01/08 08:39:50;;;;;;;22.58;11.88;;;;;;;-8.04;70.54;101691.31;1664609;85;27976;-52
2024/01/08 08:42:17;;;;;;;25.92;12.37;;;;;;;-7.92;69.34;101691.91;1660448;85;25486;-50
2024/01/08 08:44:43;;;;;;;24.15;13.30;;;;;;;-7.78;69.39;101701.03;1660715;85;25479;-49
2024/01/08 08:47:10;;;;;;;25.15;12.47;;;;;;;-7.54;69.04;101699.08;1660056;85;26478;-49
2024/01/08 08:49:37;;;;;;;26.00;13.05;;;;;;;-7.22;69.80;101702.85;1665799;85;25449;-49
2024/01/08 08:52:04;;;;;;;28.12;14.05;;;;;;;-6.88;69.29;101704.14;1646360;85;26933;-50
2024/01/08 08:54:31;;;;;;;28.27;13.48;;;;;;;-6.62;67.99;101693.55;1659892;85;25669;-49
2024/01/08 08:56:58;;;;;;;29.72;11.63;;;;;;;-6.31;68.48;101705.29;1660173;85;25520;-49
2024/01/08 08:59:24;;;;;;;22.35;10.38;;;;;;;-5.93;69.51;101701.64;1660504;85;26000;-51
2024/01/08 09:01:51;;;;;;;24.57;10.30;;;;;;;-5.38;68.30;101712.80;1659765;85;25533;-49
2024/01/08 09:04:17;;;;;;;21.07;9.70;;;;;;;-5.01;67.74;101708.70;1660088;85;28059;-50
2024/01/08 09:06:45;;;;;;;24.25;11.78;;;;;;;-4.65;66.83;101716.62;1659840;85;25412;-50
2024/01/08 09:09:12;;;;;;;24.25;12.05;;;;;;;-4.39;64.39;101718.47;1660006;85;25427;-48
2024/01/08 09:11:39;;;;;;;47.98;26.30;;;;;;;-4.18;64.20;101724.42;1664542;86;25990;-51
2024/01/08 09:14:08;;;;;;;40.12;21.45;;;;;;;-3.83;65.01;101732.77;1660361;85;25475;-51
2024/01/08 09:16:35;;;;;;;31.70;15.88;;;;;;;-3.51;64.72;101728.67;1664804;85;27278;-47
2024/01/08 09:19:03;;;;;;;24.50;10.50;;;;;;;-3.34;63.29;101727.50;1660567;85;25649;-48
2024/01/08 09:21:29;;;;;;;24.60;12.73;;;;;;;-3.29;62.16;101727.78;1660146;85;25495;-49
2024/01/08 09:23:56;;;;;;;19.67;10.85;;;;;;;-3.20;61.34;101735.16;1660021;85;25959;-49
2024/01/08 09:26:23;;;;;;;18.12;9.55;;;;;;;-2.99;61.49;101738.89;1660887;85;25465;-52
2024/01/08 09:28:49;;;;;;;22.90;10.23;;;;;;;-2.86;58.67;101733.75;1660320;85;27372;-50
2024/01/08 09:31:16;;;;;;;20.35;10.30;;;;;;;-2.85;59.81;101740.19;1659895;85;25398;-50
2024/01/08 09:33:43;;;;;;;21.45;10.53;;;;;;;-2.51;60.12;101745.90;1664364;85;25539;-51
2024/01/08 09:36:09;;;;;;;23.45;11.22;;;;;;;-2.03;60.71;101747.52;1664414;85;26685;-52
2024/01/08 09:38:36;;;;;;;25.52;11.35;;;;;;;-1.61;60.50;101749.83;1659971;85;25480;-50
2024/01/08 09:41:04;;;;;;;19.40;10.45;;;;;;;-1.11;60.11;101755.06;1660226;85;27913;-50
2024/01/08 09:43:34;;;;;;;20.08;11.53;;;;;;;-1.05;57.27;101760.13;1659881;86;25563;-52
2024/01/08 09:46:09;;;;;;;19.55;10.60;;;;;;;-0.84;55.37;101760.02;1664879;85;25427;-52
2024/01/08 09:48:35;;;;;;;20.43;10.03;;;;;;;-0.78;55.43;101758.43;1660415;85;25996;-54
2024/01/08 09:51:03;;;;;;;23.00;12.07;;;;;;;-0.69;56.06;101767.05;1660729;85;25422;-53
2024/01/08 09:53:32;;;;;;;24.80;12.53;;;;;;;-0.31;57.06;101757.27;1664562;86;28054;-51
2024/01/08 09:55:59;;;;;;;18.10;8.10;;;;;;;0.04;55.98;101755.81;1660269;85;25429;-52
2024/01/08 09:58:26;;;;;;;22.48;12.25;;;;;;;0.14;55.57;101753.57;1664515;85;25425;-49
2024/01/08 10:00:53;;;;;;;24.10;10.23;;;;;;;0.37;54.54;101758.48;1659733;86;25965;-50
2024/01/08 10:03:20;;;;;;;20.30;10.30;;;;;;;0.30;53.18;101757.14;1660036;85;25438;-52
2024/01/08 10:05:47;;;;;;;31.35;15.95;;;;;;;0.50;54.09;101757.67;1664610;86;28033;-50
2024/01/08 10:08:13;;;;;;;33.50;13.65;;;;;;;0.71;53.38;101755.28;1659931;86;25707;-52
2024/01/08 10:10:40;;;;;;;28.05;12.93;;;;;;;0.80;53.29;101752.73;1664578;86;25535;-55
2024/01/08 10:13:11;;;;;;;24.23;13.50;;;;;;;0.99;53.20;101752.37;1662944;85;26580;-52
2024/01/08 10:15:38;;;;;;;25.68;11.80;;;;;;;1.22;52.54;101747.06;1660647;85;25526;-49
2024/01/08 10:18:08;;;;;;;29.37;14.13;;;;;;;1.39;51.72;101744.22;1664656;85;27423;-50
2024/01/08 10:20:34;;;;;;;23.65;13.25;;;;;;;1.76;52.33;101742.31;1659981;85;25594;-50
2024/01/08 10:23:07;;;;;;;20.57;12.00;;;;;;;2.30;51.73;101740.91;1664524;85;25465;-52
2024/01/08 10:25:35;;;;;;;25.23;13.38;;;;;;;2.68;51.37;101749.81;1660862;85;26076;-53
2024/01/08 10:28:03;;;;;;;19.23;11.90;;;;;;;3.16;50.54;101749.91;1660537;85;25508;-49
2024/01/08 10:30:29;;;;;;;25.80;13.95;;;;;;;3.63;50.43;101753.88;1664522;86;27550;-51
2024/01/08 10:32:59;;;;;;;22.55;13.35;;;;;;;4.09;49.35;101755.87;1659909;85;25594;-51
2024/01/08 10:35:32;;;;;;;26.73;14.98;;;;;;;4.46;48.47;101750.35;1664515;85;25448;-51
2024/01/08 10:38:02;;;;;;;23.32;13.88;;;;;;;4.76;47.86;101744.05;1651072;85;25494;-51
2024/01/08 10:40:29;;;;;;;21.87;13.30;;;;;;;5.11;47.32;101755.77;1604539;88;25478;-51
2024/01/08 10:43:03;;;;;;;26.33;14.05;;;;;;;5.36;46.46;101760.84;1631667;87;25822;-52
2024/01/08 10:45:32;;;;;;;24.10;14.20;;;;;;;5.23;45.01;101759.27;1604054;88;25460;-51
2024/01/08 10:48:09;;;;;;;27.07;13.95;;;;;;;5.09;44.83;101768.61;1632178;87;25508;-53
2024/01/08 10:50:43;;;;;;;22.35;13.45;;;;;;;4.89;44.89;101751.04;1650067;87;25927;-50
2024/01/08 10:53:18;;;;;;;23.52;14.10;;;;;;;4.31;43.55;101749.98;1650244;86;25499;-53
2024/01/08 10:55:45;;;;;;;27.82;16.50;;;;;;;4.19;44.62;101758.51;1621699;88;29356;-51
2024/01/08 10:58:17;;;;;;;22.70;14.15;;;;;;;4.11;44.22;101748.42;1650071;86;25478;-54
2024/01/08 11:00:44;;;;;;;25.43;14.60;;;;;;;3.85;42.98;101745.63;1621787;88;25529;-53
2024/01/08 11:03:10;;;;;;;24.63;13.98;;;;;;;3.24;42.65;101758.16;1650063;86;26623;-53